Time;durP1;ratioP1;P1;durP2;ratioP2;P2;SDS_P1;SDS_P2;PMS_P1;PMS_P2;Temp;Humidity;BMP_temperature;BMP_pressure;BME280_temperature;BME280_humidity;BME280_pressure;Samples;Min_cycle;Max_cycle;Signal;HPM_P1;HPM_P2
2023/04/19 00:00:34;;;;;;;3.85;2.42;;;9.80;99.90;;;;;;5069837;28;20078;-83
2023/04/19 00:03:01;;;;;;;3.40;2.22;;;9.80;99.90;;;;;;5067802;28;20021;-82
2023/04/19 00:05:27;;;;;;;3.33;1.92;;;9.80;99.90;;;;;;5038166;28;20052;-82
2023/04/19 00:07:53;;;;;;;3.47;2.47;;;9.90;99.90;;;;;;5069149;28;20036;-82
2023/04/19 00:10:19;;;;;;;4.22;2.90;;;9.80;99.90;;;;;;5056905;28;20048;-82
2023/04/19 00:12:45;;;;;;;3.97;2.55;;;9.90;99.90;;;;;;5049633;28;20179;-82
2023/04/19 00:15:11;;;;;;;4.32;2.55;;;9.80;99.90;;;;;;5038786;28;20123;-82
2023/04/19 00:17:37;;;;;;;3.67;2.83;;;9.80;99.90;;;;;;5052949;28;20028;-81
2023/04/19 00:20:04;;;;;;;3.42;2.00;;;9.80;99.90;;;;;;5037082;28;20040;-82
2023/04/19 00:22:30;;;;;;;2.97;2.03;;;9.80;99.90;;;;;;5048737;28;20033;-82
2023/04/19 00:24:55;;;;;;;4.38;2.70;;;9.80;99.90;;;;;;5035020;28;20036;-82
2023/04/19 00:27:21;;;;;;;3.50;2.15;;;9.80;99.90;;;;;;5050335;28;20130;-82
2023/04/19 00:29:47;;;;;;;4.18;2.53;;;9.80;99.90;;;;;;5056763;28;20036;-82
2023/04/19 00:32:12;;;;;;;5.47;2.60;;;9.80;99.90;;;;;;5033782;28;20370;-81
2023/04/19 00:34:38;;;;;;;4.15;2.20;;;9.80;99.90;;;;;;5041225;28;20077;-82
2023/04/19 00:37:04;;;;;;;4.15;2.15;;;9.80;99.90;;;;;;5056767;28;20116;-82
2023/04/19 00:39:31;;;;;;;2.45;1.52;;;9.80;99.90;;;;;;5050675;28;20024;-82
2023/04/19 00:41:57;;;;;;;3.65;2.15;;;9.80;99.90;;;;;;5081809;28;20032;-82
2023/04/19 00:44:23;;;;;;;2.78;1.90;;;9.80;99.90;;;;;;5056539;28;20111;-82
2023/04/19 00:46:49;;;;;;;3.92;2.13;;;9.80;99.90;;;;;;5050574;28;20098;-82
2023/04/19 00:49:17;;;;;;;3.88;2.20;;;9.80;99.90;;;;;;5052721;28;20033;-82
2023/04/19 00:51:42;;;;;;;4.63;2.67;;;9.80;99.90;;;;;;5037831;28;20032;-81
2023/04/19 00:54:09;;;;;;;4.40;2.88;;;9.80;99.90;;;;;;5069151;28;20062;-82
2023/04/19 00:56:35;;;;;;;5.65;3.78;;;9.80;99.90;;;;;;5038508;28;20452;-82
2023/04/19 00:59:01;;;;;;;4.43;2.60;;;9.80;99.90;;;;;;5067369;28;20063;-82
2023/04/19 01:01:27;;;;;;;4.97;3.70;;;9.70;99.90;;;;;;5064967;28;20155;-82
2023/04/19 01:03:54;;;;;;;4.10;3.33;;;9.70;99.90;;;;;;5028815;28;20591;-82
2023/04/19 01:06:23;;;;;;;6.55;3.10;;;9.70;99.90;;;;;;5032201;28;20456;-82
2023/04/19 01:08:48;;;;;;;3.75;2.88;;;9.60;99.90;;;;;;5030171;28;20060;-82
2023/04/19 01:11:14;;;;;;;5.60;2.42;;;9.60;99.90;;;;;;5069623;28;20489;-82
2023/04/19 01:13:40;;;;;;;2.90;2.22;;;9.60;99.90;;;;;;5052894;28;20225;-82
2023/04/19 01:16:06;;;;;;;3.20;1.90;;;9.60;99.90;;;;;;5039856;28;20435;-82
2023/04/19 01:18:36;;;;;;;4.75;2.25;;;9.50;99.90;;;;;;5065694;28;20028;-81
2023/04/19 01:21:03;;;;;;;3.83;2.50;;;9.40;99.90;;;;;;5042465;28;20032;-82
2023/04/19 01:23:29;;;;;;;4.15;2.67;;;9.30;99.90;;;;;;5051642;28;20427;-82
2023/04/19 01:25:55;;;;;;;3.15;2.35;;;9.30;99.90;;;;;;5064734;28;20120;-81
2023/04/19 01:28:20;;;;;;;3.95;2.78;;;9.30;99.90;;;;;;5032210;28;20469;-82
2023/04/19 01:30:50;;;;;;;4.30;3.05;;;9.20;99.90;;;;;;5037049;28;20039;-82
2023/04/19 01:33:16;;;;;;;4.65;2.53;;;9.20;99.90;;;;;;5068570;28;20021;-82
2023/04/19 01:35:41;;;;;;;4.07;2.80;;;9.10;99.90;;;;;;5032943;28;20071;-82
2023/04/19 01:38:07;;;;;;;4.25;3.40;;;9.10;99.90;;;;;;5034803;28;20365;-82
2023/04/19 01:40:33;;;;;;;6.18;3.67;;;9.10;99.90;;;;;;5034614;28;20021;-81
2023/04/19 01:42:58;;;;;;;4.38;2.85;;;9.10;99.90;;;;;;5042614;28;20052;-82
2023/04/19 01:45:25;;;;;;;4.53;3.10;;;9.10;99.90;;;;;;5038538;28;20107;-82
2023/04/19 01:47:51;;;;;;;4.47;3.20;;;9.10;99.90;;;;;;5035021;28;20167;-83
2023/04/19 01:50:17;;;;;;;4.85;3.50;;;9.00;99.90;;;;;;5067222;28;20028;-83
2023/04/19 01:52:42;;;;;;;4.40;3.40;;;9.00;99.90;;;;;;5049353;28;20080;-83
2023/04/19 01:55:08;;;;;;;5.75;3.45;;;8.90;99.90;;;;;;5049385;28;20051;-83
2023/04/19 01:57:34;;;;;;;2.97;2.28;;;8.90;99.90;;;;;;5053044;28;20062;-83
2023/04/19 02:00:01;;;;;;;2.90;2.20;;;8.80;99.90;;;;;;5036463;28;20029;-83
2023/04/19 02:02:27;;;;;;;4.82;2.67;;;8.80;99.90;;;;;;5036512;28;20051;-83
2023/04/19 02:04:52;;;;;;;3.42;1.98;;;8.80;99.90;;;;;;5067524;28;20036;-83
2023/04/19 02:07:18;;;;;;;3.72;2.65;;;8.80;99.90;;;;;;5063219;28;20078;-83
2023/04/19 02:09:44;;;;;;;3.63;2.10;;;8.80;99.90;;;;;;5069031;28;20041;-83
2023/04/19 02:12:11;;;;;;;3.95;2.63;;;8.80;99.90;;;;;;5035144;28;20021;-82
2023/04/19 02:14:36;;;;;;;5.03;3.08;;;8.70;99.90;;;;;;5033043;28;20031;-83
2023/04/19 02:17:02;;;;;;;4.53;2.60;;;8.80;99.90;;;;;;5086913;28;20020;-82
2023/04/19 02:19:28;;;;;;;3.28;1.83;;;8.80;99.90;;;;;;5090372;28;20362;-83
2023/04/19 02:21:56;;;;;;;3.75;2.13;;;8.80;99.90;;;;;;5040389;28;20457;-82
2023/04/19 02:24:23;;;;;;;6.57;3.70;;;8.90;99.90;;;;;;5041576;28;20477;-82
2023/04/19 02:26:49;;;;;;;5.30;2.85;;;9.00;99.90;;;;;;5039845;28;20036;-82
2023/04/19 02:29:15;;;;;;;4.53;3.22;;;9.00;99.90;;;;;;5056780;28;20044;-82
2023/04/19 02:31:41;;;;;;;4.68;3.35;;;9.00;99.90;;;;;;5037022;28;20021;-82
2023/04/19 02:34:08;;;;;;;5.68;3.22;;;9.00;99.90;;;;;;5053863;28;20036;-83
2023/04/19 02:36:34;;;;;;;5.75;2.97;;;9.10;99.90;;;;;;5039519;28;20029;-83
2023/04/19 02:39:01;;;;;;;5.97;3.63;;;9.10;99.90;;;;;;5054727;28;20124;-81
2023/04/19 02:41:27;;;;;;;4.20;2.78;;;9.10;99.90;;;;;;5038518;28;20584;-82
2023/04/19 02:43:53;;;;;;;4.95;2.85;;;9.10;99.90;;;;;;5037921;28;20029;-82
2023/04/19 02:46:18;;;;;;;4.65;3.35;;;9.20;99.90;;;;;;5070924;28;20108;-82
2023/04/19 02:48:44;;;;;;;4.15;2.63;;;9.20;99.90;;;;;;5071466;28;20044;-82
2023/04/19 02:51:16;;;;;;;2.83;2.03;;;9.30;99.90;;;;;;5068269;28;20081;-82
2023/04/19 02:53:42;;;;;;;3.55;2.05;;;9.30;99.90;;;;;;5035039;28;20039;-82
2023/04/19 02:56:08;;;;;;;4.13;2.65;;;9.30;99.90;;;;;;5039532;28;20025;-81
2023/04/19 02:58:34;;;;;;;4.25;2.60;;;9.30;99.90;;;;;;5039585;28;20021;-83
2023/04/19 03:01:03;;;;;;;5.60;3.70;;;9.40;99.90;;;;;;5038857;28;20082;-82
2023/04/19 03:03:29;;;;;;;5.80;3.40;;;9.40;99.90;;;;;;5070181;28;20040;-81
2023/04/19 03:05:55;;;;;;;6.53;2.75;;;9.40;99.90;;;;;;5057667;28;20028;-82
2023/04/19 03:08:21;;;;;;;4.75;2.63;;;9.40;99.90;;;;;;5059531;28;20662;-83
2023/04/19 03:10:46;;;;;;;3.97;2.38;;;9.40;99.90;;;;;;5035903;28;20044;-81
2023/04/19 03:13:12;;;;;;;3.90;2.47;;;9.40;99.90;;;;;;5040367;28;20120;-82
2023/04/19 03:15:38;;;;;;;6.45;2.88;;;9.40;99.90;;;;;;5039902;28;20140;-82
2023/04/19 03:18:05;;;;;;;5.15;2.47;;;9.50;99.90;;;;;;5040164;28;20020;-82
2023/04/19 03:20:31;;;;;;;4.63;3.08;;;9.50;99.90;;;;;;5059605;28;20023;-82
2023/04/19 03:22:56;;;;;;;3.03;2.08;;;9.50;99.90;;;;;;5034429;28;20396;-82
2023/04/19 03:25:22;;;;;;;4.85;2.53;;;9.40;99.90;;;;;;5054252;28;20024;-82
2023/04/19 03:27:57;;;;;;;3.00;2.25;;;9.40;99.90;;;;;;5054459;28;20455;-81
2023/04/19 03:30:42;;;;;;;4.05;2.70;;;9.50;99.90;;;;;;5054441;28;20055;-82
2023/04/19 03:33:08;;;;;;;4.65;3.20;;;9.40;99.90;;;;;;5052902;28;20025;-83
2023/04/19 03:35:34;;;;;;;4.30;2.53;;;9.40;99.90;;;;;;5070341;28;20138;-82
2023/04/19 03:38:07;;;;;;;3.15;1.27;;;9.40;99.90;;;;;;5039428;28;20027;-82
2023/04/19 03:40:33;;;;;;;4.40;2.47;;;9.40;99.90;;;;;;5083820;28;20385;-82
2023/04/19 03:42:59;;;;;;;4.43;2.65;;;9.40;99.90;;;;;;5066293;28;20107;-81
2023/04/19 03:45:29;;;;;;;3.50;1.75;;;9.40;99.90;;;;;;5070043;28;20023;-82
2023/04/19 03:47:55;;;;;;;4.22;2.33;;;9.30;99.90;;;;;;5036245;28;20037;-80
2023/04/19 03:50:20;;;;;;;5.00;2.42;;;9.20;99.90;;;;;;5070693;28;20507;-82
2023/04/19 03:52:49;;;;;;;3.83;2.60;;;9.20;99.90;;;;;;5039062;28;20035;-82
2023/04/19 03:55:16;;;;;;;4.55;2.72;;;9.10;99.90;;;;;;5042724;28;20028;-83
2023/04/19 03:57:42;;;;;;;6.40;3.13;;;9.10;99.90;;;;;;5042078;28;20433;-83
2023/04/19 04:00:15;;;;;;;4.80;2.40;;;9.00;99.90;;;;;;5067336;28;20568;-82
2023/04/19 04:02:41;;;;;;;4.88;2.80;;;9.00;99.90;;;;;;5050671;28;20123;-80
2023/04/19 04:05:07;;;;;;;4.55;2.92;;;8.90;99.90;;;;;;5036563;28;20109;-84
2023/04/19 04:07:34;;;;;;;5.78;2.78;;;8.80;99.90;;;;;;5035505;28;20102;-83
2023/04/19 04:10:00;;;;;;;4.53;2.83;;;8.80;99.90;;;;;;5071673;28;20039;-83
2023/04/19 04:12:26;;;;;;;3.25;2.38;;;8.70;99.90;;;;;;5055735;28;20074;-84
2023/04/19 04:14:54;;;;;;;4.72;2.25;;;8.70;99.90;;;;;;5052125;28;20028;-83
2023/04/19 04:17:21;;;;;;;6.07;3.22;;;8.70;99.90;;;;;;5035557;28;20473;-80
2023/04/19 04:19:46;;;;;;;5.25;2.60;;;8.60;99.90;;;;;;5035429;28;20033;-82
2023/04/19 04:22:13;;;;;;;4.65;2.15;;;8.60;99.90;;;;;;5037960;28;20066;-82
2023/04/19 04:24:41;;;;;;;3.17;1.92;;;8.50;99.90;;;;;;5054093;28;20024;-82
2023/04/19 04:27:27;;;;;;;3.63;2.25;;;8.50;99.90;;;;;;5066985;28;20047;-83
2023/04/19 04:29:55;;;;;;;4.07;2.33;;;8.40;99.90;;;;;;5051925;28;20127;-83
2023/04/19 04:32:22;;;;;;;3.75;1.92;;;8.40;99.90;;;;;;5040009;28;20029;-81
2023/04/19 04:34:50;;;;;;;3.35;1.92;;;8.40;99.90;;;;;;5056141;28;20077;-82
2023/04/19 04:37:25;;;;;;;4.68;2.00;;;8.30;99.90;;;;;;5046031;28;20495;-82
2023/04/19 04:39:51;;;;;;;4.20;1.77;;;8.30;99.90;;;;;;5066826;28;20506;-82
2023/04/19 04:42:20;;;;;;;3.75;2.35;;;8.30;99.90;;;;;;5037906;28;20155;-82
2023/04/19 04:44:46;;;;;;;3.90;2.10;;;8.30;99.90;;;;;;5038445;28;20024;-82
2023/04/19 04:47:12;;;;;;;4.40;1.65;;;8.20;99.90;;;;;;5035097;28;20039;-82
2023/04/19 04:49:44;;;;;;;3.45;1.48;;;8.20;99.90;;;;;;5048429;28;20131;-82
2023/04/19 04:52:10;;;;;;;3.67;1.48;;;8.20;99.90;;;;;;5052125;28;20159;-81
2023/04/19 04:54:46;;;;;;;2.50;1.55;;;8.10;99.90;;;;;;5038251;28;20182;-82
2023/04/19 04:57:21;;;;;;;2.63;1.60;;;8.10;99.90;;;;;;5035799;28;20441;-84
2023/04/19 04:59:47;;;;;;;3.60;1.60;;;8.00;99.90;;;;;;5064321;28;20055;-82
2023/04/19 05:02:14;;;;;;;2.28;1.30;;;8.10;99.90;;;;;;5055360;28;20696;-82
2023/04/19 05:04:40;;;;;;;3.53;1.30;;;8.00;99.90;;;;;;5050425;28;20534;-83
2023/04/19 05:07:05;;;;;;;1.98;0.95;;;8.00;99.90;;;;;;5025380;28;20021;-82
2023/04/19 05:09:31;;;;;;;2.45;1.13;;;8.00;99.90;;;;;;5031871;28;20119;-82
2023/04/19 05:11:57;;;;;;;2.38;1.20;;;8.00;99.90;;;;;;5036580;28;20127;-83
2023/04/19 05:14:23;;;;;;;2.30;0.90;;;8.00;99.90;;;;;;5053692;28;20028;-83
2023/04/19 05:16:50;;;;;;;3.97;1.08;;;7.90;99.90;;;;;;5034360;28;20044;-83
2023/04/19 05:19:16;;;;;;;2.63;1.02;;;8.00;99.90;;;;;;5066274;28;20024;-82
2023/04/19 05:21:47;;;;;;;2.55;1.10;;;7.90;99.90;;;;;;5037994;28;20039;-82
2023/04/19 05:24:14;;;;;;;2.85;1.27;;;7.90;99.90;;;;;;5036808;28;20052;-83
2023/04/19 05:26:40;;;;;;;2.45;1.40;;;7.90;99.90;;;;;;5033166;28;20066;-81
2023/04/19 05:29:07;;;;;;;3.17;1.33;;;7.90;99.90;;;;;;5064192;28;20044;-82
2023/04/19 05:31:45;;;;;;;2.67;1.10;;;7.80;99.90;;;;;;5039885;28;20024;-83
2023/04/19 05:34:18;;;;;;;2.08;0.95;;;7.90;99.90;;;;;;5038960;28;20029;-82
2023/04/19 05:36:43;;;;;;;1.92;0.80;;;7.80;99.90;;;;;;5047496;28;20025;-83
2023/04/19 05:39:09;;;;;;;2.38;1.08;;;7.80;99.90;;;;;;5033662;28;20052;-82
2023/04/19 05:41:35;;;;;;;2.20;0.85;;;7.80;99.90;;;;;;5041460;28;20027;-82
2023/04/19 05:44:01;;;;;;;1.88;0.90;;;7.80;99.90;;;;;;5050762;28;20043;-82
2023/04/19 05:46:26;;;;;;;2.05;0.90;;;7.80;99.90;;;;;;5069795;28;20039;-82
2023/04/19 05:48:53;;;;;;;2.38;0.88;;;7.80;99.90;;;;;;5052708;28;20056;-83
2023/04/19 05:51:38;;;;;;;2.67;0.80;;;7.80;99.90;;;;;;5053037;28;20503;-81
2023/04/19 05:54:11;;;;;;;;;;;7.90;99.90;;;;;;5038050;28;20088;-82
2023/04/19 05:56:38;;;;;;;2.03;0.85;;;8.00;99.90;;;;;;5058415;28;19908;-83
2023/04/19 05:59:04;;;;;;;2.10;0.70;;;8.10;99.90;;;;;;5033741;28;20035;-82
2023/04/19 06:01:29;;;;;;;2.67;0.80;;;8.20;99.90;;;;;;5033557;28;20460;-82
2023/04/19 06:03:55;;;;;;;2.50;1.23;;;8.20;99.90;;;;;;5033313;28;20020;-82
2023/04/19 06:06:22;;;;;;;1.88;0.95;;;8.30;99.90;;;;;;5039596;28;20475;-82
2023/04/19 06:08:48;;;;;;;3.50;1.00;;;8.40;99.90;;;;;;5051160;28;20170;-82
2023/04/19 06:11:14;;;;;;;3.00;0.93;;;8.60;99.90;;;;;;5031788;28;20190;-82
2023/04/19 06:13:40;;;;;;;3.95;1.38;;;8.70;99.90;;;;;;5049973;28;20492;-82
2023/04/19 06:16:07;;;;;;;2.50;1.23;;;8.70;99.90;;;;;;5065846;28;20129;-82
2023/04/19 06:18:32;;;;;;;3.53;1.40;;;8.80;99.90;;;;;;5030474;28;20071;-82
2023/04/19 06:20:58;;;;;;;3.75;1.25;;;8.90;99.90;;;;;;5033294;28;20052;-82
2023/04/19 06:23:24;;;;;;;3.15;0.93;;;9.00;99.90;;;;;;5036398;28;20648;-82
2023/04/19 06:25:50;;;;;;;2.28;0.85;;;9.00;99.90;;;;;;5078222;28;20043;-82
2023/04/19 06:28:16;;;;;;;2.92;1.05;;;9.10;99.90;;;;;;5047639;28;20045;-82
2023/04/19 06:30:41;;;;;;;4.45;1.00;;;9.10;99.90;;;;;;5042271;28;20068;-82
2023/04/19 06:33:07;;;;;;;3.45;1.20;;;9.20;99.90;;;;;;5044224;28;20029;-82
2023/04/19 06:35:32;;;;;;;3.03;1.20;;;9.30;99.90;;;;;;5029609;28;20025;-83
2023/04/19 06:37:58;;;;;;;2.58;1.30;;;9.30;99.90;;;;;;5040395;28;20064;-82
2023/04/19 06:40:27;;;;;;;3.95;1.05;;;9.30;99.90;;;;;;5043968;28;20060;-82
2023/04/19 06:42:53;;;;;;;3.28;0.82;;;9.50;99.90;;;;;;5072457;28;20132;-82
2023/04/19 06:45:19;;;;;;;3.70;1.20;;;9.80;99.90;;;;;;5029235;28;20116;-83
2023/04/19 06:47:44;;;;;;;2.13;0.80;;;9.90;99.90;;;;;;5023437;28;20048;-82
2023/04/19 06:50:10;;;;;;;2.25;0.93;;;9.90;99.90;;;;;;5026298;28;20400;-82
2023/04/19 06:52:36;;;;;;;3.08;1.30;;;10.10;99.90;;;;;;5044637;28;20017;-82
2023/04/19 06:55:02;;;;;;;3.40;1.05;;;10.20;99.90;;;;;;5028820;28;20603;-82
2023/04/19 06:57:28;;;;;;;2.17;0.70;;;10.40;99.90;;;;;;5061909;28;20024;-83
2023/04/19 06:59:54;;;;;;;3.95;1.00;;;10.60;99.90;;;;;;5029925;28;20033;-82
2023/04/19 07:02:20;;;;;;;1.70;0.70;;;10.50;99.90;;;;;;5025883;28;20035;-83
2023/04/19 07:04:46;;;;;;;2.75;0.75;;;10.50;99.90;;;;;;5027594;28;20127;-82
2023/04/19 07:07:12;;;;;;;3.67;0.77;;;10.50;99.90;;;;;;5077301;28;20417;-81
2023/04/19 07:09:38;;;;;;;1.95;0.80;;;10.50;99.90;;;;;;5047584;28;20043;-81
2023/04/19 07:12:05;;;;;;;1.75;0.50;;;10.60;99.90;;;;;;5058305;28;20031;-81
2023/04/19 07:14:31;;;;;;;1.67;0.60;;;10.60;99.90;;;;;;5030445;28;20395;-81
2023/04/19 07:16:56;;;;;;;1.85;0.60;;;10.50;99.90;;;;;;5032618;28;20037;-81
2023/04/19 07:19:22;;;;;;;3.30;0.57;;;10.70;99.90;;;;;;5045986;28;20108;-81
2023/04/19 07:21:49;;;;;;;1.55;0.50;;;10.90;99.90;;;;;;5028807;28;20275;-81
2023/04/19 07:24:15;;;;;;;2.63;0.50;;;11.00;99.90;;;;;;5046447;28;20408;-82
2023/04/19 07:26:40;;;;;;;1.75;0.52;;;10.90;99.90;;;;;;5033783;28;20033;-81
2023/04/19 07:29:06;;;;;;;1.88;0.65;;;10.80;99.90;;;;;;5037875;28;20041;-81
2023/04/19 07:31:32;;;;;;;3.13;0.60;;;10.70;99.90;;;;;;5036402;28;20029;-80
2023/04/19 07:33:57;;;;;;;1.30;0.40;;;10.80;99.90;;;;;;5050526;28;20042;-81
2023/04/19 07:36:23;;;;;;;2.00;0.50;;;11.00;99.90;;;;;;5049438;28;20031;-80
2023/04/19 07:38:49;;;;;;;1.42;0.60;;;11.00;99.90;;;;;;5055040;28;20028;-82
2023/04/19 07:41:17;;;;;;;1.67;0.57;;;11.00;99.90;;;;;;5037176;28;20029;-81
2023/04/19 07:43:43;;;;;;;1.60;0.50;;;11.00;99.90;;;;;;5050777;28;20037;-81
2023/04/19 07:46:13;;;;;;;1.65;0.50;;;11.00;99.90;;;;;;5037028;28;20452;-81
2023/04/19 07:48:39;;;;;;;1.90;0.40;;;11.30;99.90;;;;;;5049799;28;20037;-81
2023/04/19 07:51:12;;;;;;;2.88;0.50;;;11.50;99.90;;;;;;5048525;28;20074;-80
2023/04/19 07:53:40;;;;;;;1.35;0.55;;;11.60;99.90;;;;;;5031483;28;20032;-83
2023/04/19 07:56:07;;;;;;;1.30;0.50;;;11.40;99.90;;;;;;5032931;28;20029;-83
2023/04/19 07:58:34;;;;;;;2.42;0.50;;;11.60;99.90;;;;;;5048857;28;20070;-81
2023/04/19 08:01:00;;;;;;;1.40;0.50;;;11.40;99.90;;;;;;5035494;28;20086;-82
2023/04/19 08:03:26;;;;;;;2.45;0.52;;;11.50;99.90;;;;;;5035602;28;20043;-82
2023/04/19 08:05:52;;;;;;;1.15;0.40;;;11.60;99.90;;;;;;5034314;28;20123;-83
2023/04/19 08:08:17;;;;;;;2.28;0.50;;;11.60;99.90;;;;;;5064720;28;20107;-83
2023/04/19 08:10:43;;;;;;;1.80;0.82;;;11.60;99.90;;;;;;5054212;28;20045;-82
2023/04/19 08:13:09;;;;;;;1.55;0.40;;;11.70;99.90;;;;;;5064380;28;20032;-81
2023/04/19 08:15:34;;;;;;;2.03;0.40;;;12.10;99.90;;;;;;5050807;28;20028;-82
2023/04/19 08:18:03;;;;;;;1.92;0.50;;;11.90;99.90;;;;;;5033761;28;20031;-82
2023/04/19 08:20:32;;;;;;;2.60;0.70;;;11.70;99.90;;;;;;5078718;28;20028;-82
2023/04/19 08:22:59;;;;;;;1.40;0.50;;;11.80;99.90;;;;;;5033776;28;20524;-83
2023/04/19 08:25:27;;;;;;;1.20;0.40;;;11.90;99.90;;;;;;5051045;28;20021;-83
2023/04/19 08:27:54;;;;;;;2.13;0.50;;;12.00;99.90;;;;;;5067074;28;20072;-82
2023/04/19 08:30:20;;;;;;;0.95;0.40;;;11.90;99.90;;;;;;5051574;28;20037;-81
2023/04/19 08:32:45;;;;;;;2.55;0.40;;;12.20;99.90;;;;;;5048973;28;20057;-84
2023/04/19 08:35:12;;;;;;;1.17;0.40;;;12.10;99.90;;;;;;5065227;28;20029;-82
2023/04/19 08:37:37;;;;;;;1.48;0.38;;;12.10;99.90;;;;;;5051023;28;20483;-81
2023/04/19 08:40:04;;;;;;;0.77;0.30;;;12.10;99.90;;;;;;5063278;28;20032;-81
2023/04/19 08:42:32;;;;;;;1.65;0.32;;;12.20;99.90;;;;;;5046863;28;20035;-82
2023/04/19 08:45:01;;;;;;;1.40;0.40;;;12.70;99.90;;;;;;5034745;28;20032;-81
2023/04/19 08:47:27;;;;;;;1.63;0.22;;;12.50;99.90;;;;;;5031004;28;20157;-82
2023/04/19 08:49:55;;;;;;;0.95;0.30;;;12.60;99.90;;;;;;5036490;28;20554;-82
2023/04/19 08:52:22;;;;;;;2.72;0.38;;;12.70;99.90;;;;;;5046676;28;20111;-81
2023/04/19 08:54:49;;;;;;;1.10;0.30;;;12.60;99.90;;;;;;5035536;28;20040;-82
2023/04/19 08:57:15;;;;;;;1.20;0.50;;;12.70;99.90;;;;;;5036795;28;20476;-81
2023/04/19 08:59:44;;;;;;;1.20;0.20;;;12.90;99.90;;;;;;5035497;28;20032;-81
2023/04/19 09:02:10;;;;;;;1.05;0.20;;;13.10;99.90;;;;;;5033187;28;20035;-81
2023/04/19 09:04:35;;;;;;;0.90;0.20;;;12.90;99.90;;;;;;5032433;28;20037;-81
2023/04/19 09:07:01;;;;;;;1.60;0.30;;;12.90;99.90;;;;;;5032249;28;20115;-81
2023/04/19 09:09:29;;;;;;;0.38;0.10;;;12.60;99.90;;;;;;5081626;28;20147;-80
2023/04/19 09:11:58;;;;;;;1.88;0.20;;;13.00;99.90;;;;;;5036431;28;20418;-81
2023/04/19 09:14:26;;;;;;;1.58;0.25;;;13.40;99.90;;;;;;5031053;28;20029;-81
2023/04/19 09:16:53;;;;;;;2.08;0.20;;;13.20;99.90;;;;;;5035779;28;20044;-81
2023/04/19 09:19:18;;;;;;;1.25;0.20;;;13.00;99.90;;;;;;5028866;28;20087;-81
2023/04/19 09:21:44;;;;;;;1.55;0.20;;;12.90;99.90;;;;;;5033997;28;20056;-80
2023/04/19 09:24:10;;;;;;;1.52;0.20;;;12.80;99.90;;;;;;5034160;28;20036;-82
2023/04/19 09:26:36;;;;;;;2.20;0.20;;;13.00;99.90;;;;;;5064977;28;20036;-82
2023/04/19 09:29:04;;;;;;;4.53;0.30;;;13.40;99.90;;;;;;5051055;28;20064;-82
2023/04/19 09:31:35;;;;;;;1.10;0.20;;;12.90;99.90;;;;;;5041051;28;20122;-82
2023/04/19 09:34:22;;;;;;;2.08;0.30;;;12.80;99.90;;;;;;5027867;28;20504;-82
2023/04/19 09:36:48;;;;;;;1.17;0.30;;;12.90;99.90;;;;;;5034527;28;20358;-81
2023/04/19 09:39:28;;;;;;;3.45;0.30;;;12.90;99.90;;;;;;5036214;28;20021;-82
2023/04/19 09:41:54;;;;;;;0.60;0.20;;;12.80;99.90;;;;;;5049262;28;20021;-83
2023/04/19 09:44:20;;;;;;;1.23;0.32;;;12.90;99.90;;;;;;5065468;28;20024;-82
2023/04/19 09:46:48;;;;;;;1.05;0.30;;;12.90;99.90;;;;;;5031956;28;20048;-82
2023/04/19 09:49:16;;;;;;;1.63;0.30;;;12.90;99.90;;;;;;5029245;28;20525;-82
2023/04/19 09:51:43;;;;;;;1.48;0.40;;;12.90;99.90;;;;;;5032685;28;20048;-83
2023/04/19 09:54:10;;;;;;;0.95;0.20;;;12.80;99.90;;;;;;5035515;28;20107;-82
2023/04/19 09:56:37;;;;;;;0.70;0.20;;;12.90;99.90;;;;;;5031247;28;20477;-81
2023/04/19 09:59:04;;;;;;;2.13;0.30;;;13.10;99.90;;;;;;5036441;28;20055;-83
2023/04/19 10:01:44;;;;;;;0.77;0.20;;;13.30;99.90;;;;;;5032652;28;20511;-81
2023/04/19 10:04:20;;;;;;;0.88;0.30;;;13.30;99.90;;;;;;5050645;28;20036;-83
2023/04/19 10:06:48;;;;;;;0.60;0.30;;;13.50;99.90;;;;;;5047595;28;20102;-81
2023/04/19 10:09:14;;;;;;;0.60;0.20;;;13.50;99.90;;;;;;5041840;28;20389;-83
2023/04/19 10:11:42;;;;;;;2.15;0.20;;;13.70;99.90;;;;;;5031828;28;20028;-82
2023/04/19 10:14:09;;;;;;;3.00;0.20;;;13.70;99.90;;;;;;5034334;28;20469;-80
2023/04/19 10:16:36;;;;;;;2.38;0.30;;;13.80;99.90;;;;;;5032147;28;20024;-81
2023/04/19 10:19:05;;;;;;;1.60;0.20;;;13.70;99.90;;;;;;5030945;28;20077;-80
2023/04/19 10:21:32;;;;;;;0.40;0.10;;;13.90;99.90;;;;;;5034919;28;20025;-83
2023/04/19 10:23:58;;;;;;;0.77;0.20;;;14.10;99.90;;;;;;5029996;28;20111;-82
2023/04/19 10:26:24;;;;;;;1.30;0.30;;;13.80;99.90;;;;;;5032774;28;20415;-79
2023/04/19 10:28:50;;;;;;;1.23;0.30;;;14.20;99.90;;;;;;5053083;28;20052;-82
2023/04/19 10:31:22;;;;;;;2.55;0.40;;;14.10;99.90;;;;;;5035307;28;20028;-79
2023/04/19 10:33:50;;;;;;;1.30;0.32;;;14.20;99.90;;;;;;5059713;28;20025;-82
2023/04/19 10:36:16;;;;;;;2.80;0.40;;;14.40;99.90;;;;;;5033463;28;20534;-81
2023/04/19 10:38:47;;;;;;;1.30;0.50;;;14.50;99.90;;;;;;5037024;28;20029;-80
2023/04/19 10:41:20;;;;;;;1.70;0.50;;;14.60;99.80;;;;;;5053267;28;20043;-79
2023/04/19 10:43:56;;;;;;;1.83;0.40;;;14.40;99.90;;;;;;5040277;28;20370;-83
2023/04/19 10:46:23;;;;;;;0.88;0.30;;;14.50;99.00;;;;;;5039988;28;20032;-86
2023/04/19 10:48:54;;;;;;;1.50;0.30;;;14.50;98.80;;;;;;5036889;28;20021;-82
2023/04/19 10:51:22;;;;;;;1.05;0.30;;;14.60;98.40;;;;;;5045182;28;20108;-83
2023/04/19 10:54:04;;;;;;;0.85;0.30;;;14.80;98.40;;;;;;5037087;28;20032;-84
2023/04/19 10:56:33;;;;;;;1.63;0.40;;;15.10;98.40;;;;;;5036950;28;20037;-83
2023/04/19 10:59:04;;;;;;;0.65;0.25;;;14.80;97.90;;;;;;5039340;28;20029;-83
2023/04/19 11:01:58;;;;;;;2.63;0.25;;;14.90;97.50;;;;;;5033790;28;20027;-83
2023/04/19 11:04:49;;;;;;;1.60;0.20;;;14.90;97.80;;;;;;5036226;28;20032;-83
2023/04/19 11:07:22;;;;;;;1.75;0.40;;;15.30;97.70;;;;;;5058443;28;20032;-82
2023/04/19 11:09:50;;;;;;;0.93;0.30;;;14.90;96.50;;;;;;5036431;28;20037;-83
2023/04/19 11:12:18;;;;;;;2.13;0.60;;;15.00;96.70;;;;;;5036975;28;20031;-83
2023/04/19 11:14:46;;;;;;;3.03;0.30;;;15.20;96.60;;;;;;5037164;28;20535;-84
2023/04/19 11:17:30;;;;;;;1.00;0.30;;;15.10;95.80;;;;;;5038047;28;20116;-82
2023/04/19 11:20:09;;;;;;;1.00;0.28;;;15.10;95.20;;;;;;5052916;28;20039;-83
2023/04/19 11:22:40;;;;;;;0.77;0.30;;;15.40;95.10;;;;;;5035539;28;20020;-80
2023/04/19 11:25:20;;;;;;;1.25;0.22;;;15.20;93.90;;;;;;5033243;28;20496;-82
2023/04/19 11:27:48;;;;;;;1.73;0.38;;;15.50;93.90;;;;;;5029082;28;20085;-81
2023/04/19 11:30:21;;;;;;;0.80;0.30;;;15.20;93.70;;;;;;5052381;28;20048;-82
2023/04/19 11:32:48;;;;;;;1.83;0.30;;;15.10;93.20;;;;;;5035255;28;20033;-80
2023/04/19 11:35:18;;;;;;;1.45;0.45;;;15.00;92.90;;;;;;5034908;28;20506;-80
2023/04/19 11:37:43;;;;;;;1.45;0.30;;;15.30;94.00;;;;;;5034942;28;20465;-81
2023/04/19 11:40:14;;;;;;;1.48;0.20;;;15.50;93.80;;;;;;5036530;28;20056;-81
2023/04/19 11:42:40;;;;;;;3.95;0.40;;;16.00;94.10;;;;;;5037890;28;20041;-81
2023/04/19 11:45:08;;;;;;;1.20;0.30;;;15.70;94.40;;;;;;5036479;28;20031;-82
2023/04/19 11:47:33;;;;;;;1.02;0.30;;;15.60;94.10;;;;;;5032078;28;20032;-81
2023/04/19 11:50:38;;;;;;;0.90;0.30;;;15.40;93.60;;;;;;5056498;28;20036;-81
2023/04/19 11:53:11;;;;;;;1.23;0.30;;;15.50;94.20;;;;;;5038847;28;20354;-82
2023/04/19 11:55:37;;;;;;;1.13;0.30;;;15.50;94.00;;;;;;5035165;28;20024;-83
2023/04/19 11:58:08;;;;;;;1.02;0.30;;;15.80;94.40;;;;;;5039054;28;20396;-81
2023/04/19 12:00:34;;;;;;;1.35;0.30;;;16.20;94.40;;;;;;5035982;28;20036;-83
2023/04/19 12:03:00;;;;;;;0.80;0.30;;;16.10;94.20;;;;;;5065316;28;20373;-82
2023/04/19 12:05:30;;;;;;;0.75;0.20;;;16.20;94.20;;;;;;5037539;28;20695;-81
2023/04/19 12:07:59;;;;;;;1.05;0.30;;;16.30;94.00;;;;;;5054053;28;20021;-80
2023/04/19 12:10:25;;;;;;;0.80;0.20;;;16.40;94.30;;;;;;5040206;28;20124;-80
2023/04/19 12:12:50;;;;;;;0.93;0.30;;;16.20;93.60;;;;;;5034882;28;20566;-81
2023/04/19 12:15:16;;;;;;;0.98;0.32;;;16.20;93.30;;;;;;5038022;28;20480;-82
2023/04/19 12:18:00;;;;;;;0.90;0.30;;;16.00;92.50;;;;;;5057009;28;20032;-81
2023/04/19 12:20:30;;;;;;;0.80;0.20;;;16.10;93.40;;;;;;5049866;28;20146;-82
2023/04/19 12:22:55;;;;;;;1.10;0.40;;;16.20;92.10;;;;;;5040822;28;20029;-80
2023/04/19 12:25:21;;;;;;;0.80;0.30;;;16.20;92.60;;;;;;5063540;28;20055;-81
2023/04/19 12:27:47;;;;;;;1.15;0.30;;;16.00;92.90;;;;;;5036411;28;20056;-81
2023/04/19 12:30:12;;;;;;;1.95;0.30;;;16.10;93.20;;;;;;5067678;28;20036;-82
2023/04/19 12:32:38;;;;;;;1.83;0.30;;;16.60;93.50;;;;;;5037727;28;20511;-81
2023/04/19 12:35:05;;;;;;;3.03;0.50;;;16.60;93.60;;;;;;5034285;28;20052;-83
2023/04/19 12:37:33;;;;;;;1.67;0.28;;;16.50;93.70;;;;;;5048954;28;20027;-81
2023/04/19 12:39:59;;;;;;;0.93;0.30;;;16.50;93.90;;;;;;5049933;28;20112;-80
2023/04/19 12:42:25;;;;;;;1.40;0.30;;;16.50;92.50;;;;;;5032306;28;20120;-79
2023/04/19 12:44:51;;;;;;;0.88;0.40;;;16.20;93.60;;;;;;5030955;28;20143;-79
2023/04/19 12:47:16;;;;;;;0.90;0.30;;;16.10;93.50;;;;;;5051525;28;20025;-80
2023/04/19 12:49:42;;;;;;;1.25;0.40;;;16.20;93.50;;;;;;5033983;28;20131;-81
2023/04/19 12:52:08;;;;;;;2.10;0.43;;;16.50;93.90;;;;;;5030802;28;20082;-79
2023/04/19 12:54:33;;;;;;;3.60;0.40;;;16.50;93.40;;;;;;5032449;28;20500;-79